Ariel, WA

4:50 PM PDT on September 23, 2014 (GMT -0700)
West Yale Valley | Change Station
CLOSE
Current Station
Personal Weather Station
Location: Ariel, WA
Elevation: 455 ft
Nearby Weather Stations
Active Advisory: Special Statement

Elev 455 ft 46.00 °N, 122.40 °W | Updated 6 minutes ago

Rain
Rain
61.5 °F
Feels Like 61.5 °F
N
0.0
Wind Variable Wind from East
Gusts 2.0 mph

Today
High -- | Low -- °F
--% Chance of Precip.
Yesterday
High -- | Low -- °F
Precip. -- in
6:58 AM 7:05 PM
Waning Crescent, 0% visible
Pressure 29.83 in
Visibility 10.0 miles
Clouds Few 2900 ft
Mostly Cloudy 4100 ft
Overcast 8000 ft
Dew Point 50 °F
Humidity 65%
Rainfall 0.15 in
Snow Depth 1 in , 0 in , 0 in
UV 1 out of 12
Pollen .40 out of 12
Air Quality Not available.
Flu Activity Not available.
METAR KKLS 232335Z AUTO 00000KT 10SM FEW029 BKN041 OVC080 18/15 A2983 RMK AO1 P0003

More Conditions Fewer Conditions

Pressure 29.83 in
Visibility 10.0 miles
Clouds Few 2900 ft
Mostly Cloudy 4100 ft
Overcast 8000 ft
Dew Point 50 °F
Humidity 65%
Rainfall 0.15 in
Snow Depth 1 in , 0 in , 0 in
UV 1 out of 12
Pollen .40 out of 12
Air Quality Not available.
Flu Activity Not available.
METAR KKLS 232335Z AUTO 00000KT 10SM FEW029 BKN041 OVC080 18/15 A2983 RMK AO1 P0003

More Conditions Fewer Conditions

10-Day Weather Forecast

Almanac

Astronomy

Sep. 23, 2014 Rise Set
Actual Time 6:58 AM PDT 7:05 PM PDT
Civil Twilight 6:28 AM PDT 7:34 PM PDT
Nautical Twilight 5:53 AM PDT 8:09 PM PDT
Astronomical Twilight 5:17 AM PDT 8:45 PM PDT
Moon 6:27 AM PDT 6:45 PM PDT
Length of Visible Light 13h 06m
Length of Day
12h 07m
Tomorrow will be 3m 12s shorter.
Waning Crescent, 0% of the Moon is Illuminated
Today
Waning Crescent
Sep 24
New
Oct 1
First Quarter
Oct 8
Full
Oct 15
Last Quarter

Today's Extremes

State Highs State Lows

Community

WunderPhotos

Upload Photos

1,755,821 photos uploaded!

WunderBlogs® & News

Nearby

Snow Depth

Station Depth Elevation
Pope Ridge 1 in 3540 ft
Grouse Camp 0 in 5380 ft
Sourdough Gulch 0 in 4000 ft
Trough 0 in 5300 ft
Rainy Pass 0 in 4780 ft

Earthquake Activity

City Distance Mag. Time & Date
No recent earthquake activity has been reported nearby.
Minimum magnitude displayed is 2.5.

Coastal Water Temperatures

Place Temperature
No Stations Reporting

Nearby Weather Stations